This is the latest recevied weather packets stored in our database for station/object PY3MO-13. If no packets are shown the sender has not sent any weather packets the latest 1 day(s).
| Time | Temp. | Humidity | Pressure | Rain* | Wind** | Luminosity | Snow |
|---|---|---|---|---|---|---|---|
| 1778114834 | 21.11° C | 76% | 1015.8 hPa | 0 mm | - | - | - |
| 1778114406 | 20.56° C | 78% | 1016 hPa | 0 mm | - | - | - |
| 1778114233 | 20.56° C | 79% | 1016 hPa | 0 mm | - | - | - |
| 1778113933 | 20.56° C | 80% | 1015.9 hPa | 0 mm | - | - | - |
| 1778113807 | 20.56° C | 80% | 1016 hPa | 0 mm | - | - | - |
| 1778113633 | 20° C | 80% | 1016 hPa | 0 mm | - | - | - |
| 1778113332 | 20° C | 80% | 1016.2 hPa | 0 mm | - | - | - |
| 1778112733 | 20.56° C | 78% | 1016.1 hPa | 0 mm | - | - | - |
| 1778112307 | 20.56° C | 79% | 1016.1 hPa | 0 mm | - | - | - |
| 1778111107 | 21.11° C | 74% | 1016 hPa | 0 mm | - | - | - |
| 1778110632 | 21.67° C | 73% | 1016.1 hPa | 0 mm | - | - | - |
| 1778110208 | 21.67° C | 73% | 1016.1 hPa | 0 mm | - | - | - |
| 1778109607 | 21.67° C | 75% | 1016.1 hPa | 0 mm | - | - | - |
| 1778109306 | 21.11° C | 76% | 1015.9 hPa | 0 mm | - | - | - |
| 1778108532 | 21.67° C | 74% | 1016 hPa | 0 mm | - | - | - |
| 1778108406 | 21.67° C | 74% | 1016 hPa | 0 mm | - | - | - |
| 1778107933 | 21.67° C | 73% | 1016 hPa | 0 mm | - | - | - |
| 1778107332 | 22.22° C | 73% | 1016.1 hPa | 0 mm | - | - | - |
| 1778106132 | 22.22° C | 71% | 1016.2 hPa | 0 mm | - | - | - |
| 1778105108 | 22.22° C | 68% | 1016.1 hPa | 0 mm | - | - | - |
| 1778104508 | 22.78° C | 66% | 1016.2 hPa | 0 mm | - | - | - |
| 1778103606 | 23.33° C | 64% | 1016.1 hPa | 0 mm | - | - | - |
| 1778101332 | 23.89° C | 63% | 1015.9 hPa | 0 mm | - | - | - |
| 1778101032 | 23.89° C | 63% | 1015.9 hPa | 0 mm | - | - | - |
| 1778100906 | 23.89° C | 63% | 1015.9 hPa | 0 mm | - | - | - |
* Rain latest hour (hover to see other rain measurements)
** Current wind speed in m/s (hover to see current wind gust speed)